Time;durP1;ratioP1;P1;durP2;ratioP2;P2;SDS_P1;SDS_P2;PMS_P1;PMS_P2;Temp;Humidity;BMP_temperature;BMP_pressure;BME280_temperature;BME280_humidity;BME280_pressure;Samples;Min_cycle;Max_cycle;Signal;HPM_P1;HPM_P2
2021/10/14 00:00:41;;;;;;;8.67;7.77;;;;;;;;;;5051766;28;20461;-80
2021/10/14 00:03:08;;;;;;;10.03;7.60;;;;;;;;;;5055927;28;20472;-79
2021/10/14 00:05:36;;;;;;;9.37;7.67;;;;;;;;;;5038127;28;20437;-80
2021/10/14 00:08:04;;;;;;;7.97;7.00;;;;;;;;;;5053682;28;20481;-80
2021/10/14 00:10:33;;;;;;;9.30;7.47;;;;;;;;;;5039688;28;20439;-81
2021/10/14 00:13:00;;;;;;;9.93;7.53;;;;;;;;;;5041391;28;20471;-80
2021/10/14 00:15:27;;;;;;;10.07;7.70;;;;;;;;;;5050868;28;20445;-80
2021/10/14 00:17:55;;;;;;;9.70;8.10;;;;;;;;;;5050948;28;20457;-80
2021/10/14 00:20:22;;;;;;;9.10;8.20;;;;;;;;;;5053314;28;20445;-84
2021/10/14 00:22:49;;;;;;;7.30;6.50;;;;;;;;;;5051564;28;20988;-82
2021/10/14 00:25:19;;;;;;;8.77;6.70;;;;;;;;;;5053257;28;20925;-81
2021/10/14 00:27:48;;;;;;;9.57;7.57;;;;;;;;;;5055149;28;20832;-81
2021/10/14 00:30:15;;;;;;;7.80;7.00;;;;;;;;;;5053946;28;20461;-81
2021/10/14 00:32:42;;;;;;;10.00;8.50;;;;;;;;;;5039388;28;20861;-81
2021/10/14 00:35:10;;;;;;;9.40;7.37;;;;;;;;;;5042601;28;20610;-79
2021/10/14 00:37:37;;;;;;;8.03;7.13;;;;;;;;;;5052813;28;20633;-80
2021/10/14 00:40:05;;;;;;;8.47;7.57;;;;;;;;;;5034956;28;20443;-82
2021/10/14 00:42:33;;;;;;;8.80;7.47;;;;;;;;;;5035156;28;20816;-80
2021/10/14 00:45:03;;;;;;;8.20;6.70;;;;;;;;;;5055579;28;20799;-81
2021/10/14 00:47:31;;;;;;;7.87;6.50;;;;;;;;;;5063869;28;20877;-83
2021/10/14 00:49:59;;;;;;;8.10;6.87;;;;;;;;;;5041255;28;20916;-84
2021/10/14 00:52:27;;;;;;;9.43;7.30;;;;;;;;;;5022063;28;20795;-80
2021/10/14 00:54:56;;;;;;;8.63;6.80;;;;;;;;;;5033683;28;20479;-84
2021/10/14 00:57:23;;;;;;;8.23;6.63;;;;;;;;;;5052048;28;20441;-84
2021/10/14 00:59:50;;;;;;;8.10;6.47;;;;;;;;;;5033033;28;20510;-81
2021/10/14 01:02:19;;;;;;;6.97;6.20;;;;;;;;;;5050648;28;20469;-85
2021/10/14 01:04:46;;;;;;;8.07;6.53;;;;;;;;;;5046024;28;20525;-79
2021/10/14 01:07:13;;;;;;;11.40;7.03;;;;;;;;;;5038656;28;20794;-82
2021/10/14 01:09:41;;;;;;;8.33;6.30;;;;;;;;;;5040207;28;21013;-81
2021/10/14 01:12:08;;;;;;;10.27;6.90;;;;;;;;;;5049753;28;20461;-83
2021/10/14 01:14:36;;;;;;;7.87;6.73;;;;;;;;;;5051955;28;20442;-79
2021/10/14 01:17:03;;;;;;;8.73;6.50;;;;;;;;;;5050532;28;20461;-86
2021/10/14 01:19:32;;;;;;;6.50;5.80;;;;;;;;;;5052443;28;20484;-77
2021/10/14 01:22:00;;;;;;;7.90;6.20;;;;;;;;;;5023539;28;20426;-81
2021/10/14 01:24:27;;;;;;;6.83;6.13;;;;;;;;;;5037727;28;20442;-82
2021/10/14 01:26:54;;;;;;;6.30;5.60;;;;;;;;;;5049624;28;20443;-81
2021/10/14 01:29:22;;;;;;;7.00;6.33;;;;;;;;;;5049851;28;20489;-88
2021/10/14 01:31:49;;;;;;;6.70;5.90;;;;;;;;;;5050123;28;20461;-81
2021/10/14 01:34:17;;;;;;;7.43;6.73;;;;;;;;;;5051635;28;20460;-82
2021/10/14 01:36:44;;;;;;;8.03;6.70;;;;;;;;;;5045663;28;20557;-81
2021/10/14 01:39:13;;;;;;;7.13;6.43;;;;;;;;;;5037457;28;20449;-80
2021/10/14 01:41:44;;;;;;;7.00;6.10;;;;;;;;;;5044472;28;20914;-83
2021/10/14 01:44:12;;;;;;;6.27;5.40;;;;;;;;;;5049313;28;21017;-83
2021/10/14 01:46:39;;;;;;;7.20;5.47;;;;;;;;;;5051011;28;20472;-79
2021/10/14 01:49:06;;;;;;;9.20;5.90;;;;;;;;;;5050421;28;20487;-79
2021/10/14 01:51:34;;;;;;;10.23;6.60;;;;;;;;;;5022893;28;20456;-81
2021/10/14 01:54:01;;;;;;;6.97;5.50;;;;;;;;;;5036784;28;20458;-80
2021/10/14 01:56:29;;;;;;;7.33;6.17;;;;;;;;;;5039372;28;20449;-84
2021/10/14 01:58:56;;;;;;;12.70;7.00;;;;;;;;;;5050324;28;20445;-80
2021/10/14 02:01:24;;;;;;;10.13;5.90;;;;;;;;;;5049513;28;20461;-81
2021/10/14 02:03:51;;;;;;;11.80;6.43;;;;;;;;;;5050839;28;20872;-81
2021/10/14 02:06:18;;;;;;;10.20;6.43;;;;;;;;;;5048222;28;20461;-81
2021/10/14 02:08:45;;;;;;;8.37;5.90;;;;;;;;;;5037521;28;20469;-78
2021/10/14 02:11:12;;;;;;;6.60;5.37;;;;;;;;;;5039897;28;20451;-80
2021/10/14 02:13:41;;;;;;;6.00;4.90;;;;;;;;;;5050459;28;20477;-79
2021/10/14 02:16:08;;;;;;;7.53;6.20;;;;;;;;;;5050816;28;20448;-79
2021/10/14 02:18:36;;;;;;;8.00;6.13;;;;;;;;;;5049477;28;20461;-80
2021/10/14 02:21:03;;;;;;;7.63;5.90;;;;;;;;;;5050525;28;20468;-84
2021/10/14 02:23:30;;;;;;;8.90;6.40;;;;;;;;;;5046032;28;20501;-81
2021/10/14 02:26:00;;;;;;;7.03;5.90;;;;;;;;;;5037270;28;20426;-79
2021/10/14 02:28:27;;;;;;;7.90;6.73;;;;;;;;;;5042759;28;20565;-82
2021/10/14 02:30:55;;;;;;;9.20;6.30;;;;;;;;;;5050917;28;20448;-86
2021/10/14 02:33:23;;;;;;;10.30;5.70;;;;;;;;;;5049454;28;20477;-77
2021/10/14 02:38:43;;;;;;;6.70;5.70;;;;;;;;;;5048484;28;20550;-82
2021/10/14 02:41:11;;;;;;;10.50;6.23;;;;;;;;;;5040767;28;20476;-80
2021/10/14 02:43:38;;;;;;;7.47;6.10;;;;;;;;;;5039135;28;20480;-79
2021/10/14 02:46:06;;;;;;;7.90;5.57;;;;;;;;;;5051687;28;20472;-81
2021/10/14 02:48:33;;;;;;;6.33;5.73;;;;;;;;;;5050086;28;20492;-83
2021/10/14 02:51:01;;;;;;;8.90;6.37;;;;;;;;;;5048814;28;20458;-80
2021/10/14 02:53:29;;;;;;;9.10;6.17;;;;;;;;;;5050012;28;20559;-80
2021/10/14 02:55:57;;;;;;;7.70;6.17;;;;;;;;;;5035735;28;20438;-79
2021/10/14 02:58:24;;;;;;;7.97;6.80;;;;;;;;;;5019842;28;20469;-81
2021/10/14 03:00:52;;;;;;;7.87;6.17;;;;;;;;;;5031450;28;20457;-84
2021/10/14 03:03:21;;;;;;;6.77;5.40;;;;;;;;;;5039968;28;20518;-78
2021/10/14 03:05:48;;;;;;;10.13;6.83;;;;;;;;;;5054424;28;20473;-79
2021/10/14 03:08:15;;;;;;;7.07;6.03;;;;;;;;;;5055600;28;20457;-80
2021/10/14 03:10:43;;;;;;;7.27;6.00;;;;;;;;;;5059066;28;20453;-81
2021/10/14 03:13:10;;;;;;;8.13;6.07;;;;;;;;;;5056652;28;20485;-80
2021/10/14 03:15:37;;;;;;;8.03;6.57;;;;;;;;;;5055095;28;20441;-80
2021/10/14 03:18:04;;;;;;;11.60;6.93;;;;;;;;;;5039600;28;20949;-80
2021/10/14 03:20:33;;;;;;;11.80;8.80;;;;;;;;;;5039922;28;20438;-79
2021/10/14 03:23:00;;;;;;;11.10;8.00;;;;;;;;;;5036003;28;20480;-82
2021/10/14 03:25:28;;;;;;;9.27;6.93;;;;;;;;;;5054558;28;20922;-79
2021/10/14 03:27:55;;;;;;;9.90;6.90;;;;;;;;;;5054288;28;20448;-79
2021/10/14 03:30:22;;;;;;;10.53;7.10;;;;;;;;;;5053219;28;20488;-81
2021/10/14 03:32:49;;;;;;;10.23;6.87;;;;;;;;;;5056161;28;20839;-84
2021/10/14 03:35:17;;;;;;;12.17;6.83;;;;;;;;;;5054417;28;20461;-81
2021/10/14 03:37:46;;;;;;;9.33;6.80;;;;;;;;;;5056289;28;20444;-80
2021/10/14 03:40:14;;;;;;;10.40;6.83;;;;;;;;;;5043794;28;20450;-82
2021/10/14 03:42:41;;;;;;;8.07;6.30;;;;;;;;;;5039997;28;20458;-80
2021/10/14 03:45:09;;;;;;;7.93;6.57;;;;;;;;;;5051460;28;20466;-83
2021/10/14 03:47:36;;;;;;;8.90;7.37;;;;;;;;;;5038898;28;20445;-82
2021/10/14 03:50:04;;;;;;;9.90;6.90;;;;;;;;;;5052555;28;20484;-83
2021/10/14 03:52:31;;;;;;;10.67;8.00;;;;;;;;;;5053374;28;20481;-79
2021/10/14 03:55:00;;;;;;;9.30;6.97;;;;;;;;;;5050640;28;20485;-80
2021/10/14 03:57:27;;;;;;;12.20;7.53;;;;;;;;;;5038529;28;20779;-82
2021/10/14 03:59:54;;;;;;;10.47;7.63;;;;;;;;;;5043521;28;20461;-86
2021/10/14 04:02:21;;;;;;;9.57;6.60;;;;;;;;;;5051925;28;20473;-80
2021/10/14 04:04:49;;;;;;;10.97;6.20;;;;;;;;;;5053248;28;20765;-83
2021/10/14 04:07:16;;;;;;;11.70;6.87;;;;;;;;;;5051881;28;20457;-79
2021/10/14 04:09:43;;;;;;;9.17;6.67;;;;;;;;;;5051092;28;20493;-85
2021/10/14 04:12:11;;;;;;;8.87;6.67;;;;;;;;;;5038012;28;20821;-81
2021/10/14 04:14:39;;;;;;;6.53;5.10;;;;;;;;;;5035674;28;20768;-79
2021/10/14 04:17:06;;;;;;;6.37;5.63;;;;;;;;;;5032804;28;20453;-81
2021/10/14 04:19:33;;;;;;;6.30;5.70;;;;;;;;;;5050562;28;21005;-80
2021/10/14 04:22:00;;;;;;;7.23;5.80;;;;;;;;;;5052772;28;20441;-81
2021/10/14 04:24:29;;;;;;;6.37;5.20;;;;;;;;;;5051338;28;20974;-83
2021/10/14 04:26:56;;;;;;;6.90;6.30;;;;;;;;;;5046340;28;20429;-79
2021/10/14 04:29:25;;;;;;;9.60;5.93;;;;;;;;;;5038272;28;20501;-82
2021/10/14 04:31:52;;;;;;;9.23;6.00;;;;;;;;;;5032806;28;20436;-80
2021/10/14 04:34:19;;;;;;;11.00;6.80;;;;;;;;;;5050629;28;20477;-79
2021/10/14 04:36:47;;;;;;;8.43;5.80;;;;;;;;;;5052621;28;20445;-85
2021/10/14 04:39:15;;;;;;;9.93;6.17;;;;;;;;;;5051571;28;20437;-85
2021/10/14 04:41:43;;;;;;;7.40;5.83;;;;;;;;;;5027940;28;20880;-88
2021/10/14 04:44:10;;;;;;;10.10;6.43;;;;;;;;;;5038557;28;21014;-81
2021/10/14 04:46:39;;;;;;;9.43;6.00;;;;;;;;;;5048539;28;20443;-80
2021/10/14 04:49:06;;;;;;;8.87;6.70;;;;;;;;;;5031396;28;20505;-81
2021/10/14 04:51:33;;;;;;;8.00;6.30;;;;;;;;;;5036030;28;20572;-84
2021/10/14 04:54:00;;;;;;;10.00;7.67;;;;;;;;;;5052614;28;20476;-81
2021/10/14 04:56:28;;;;;;;6.70;6.00;;;;;;;;;;5045796;28;20453;-87
2021/10/14 04:58:55;;;;;;;12.07;7.50;;;;;;;;;;5037277;28;20826;-83
2021/10/14 05:01:22;;;;;;;9.53;7.23;;;;;;;;;;5045097;28;20823;-80
2021/10/14 05:03:50;;;;;;;7.90;6.30;;;;;;;;;;5050763;28;20480;-80
2021/10/14 05:06:18;;;;;;;9.93;6.83;;;;;;;;;;5052685;28;20449;-80
2021/10/14 05:08:45;;;;;;;9.10;6.50;;;;;;;;;;5051417;28;20457;-85
2021/10/14 05:11:13;;;;;;;8.10;6.37;;;;;;;;;;5053128;28;20584;-83
2021/10/14 05:13:40;;;;;;;11.77;7.43;;;;;;;;;;5052970;28;20476;-82
2021/10/14 05:16:07;;;;;;;10.57;6.90;;;;;;;;;;5037498;28;20806;-85
2021/10/14 05:18:35;;;;;;;9.10;6.23;;;;;;;;;;5048255;28;20434;-82
2021/10/14 05:21:03;;;;;;;8.40;6.60;;;;;;;;;;5037595;28;20465;-81
2021/10/14 05:23:30;;;;;;;8.47;6.73;;;;;;;;;;5032686;28;20819;-85
2021/10/14 05:25:58;;;;;;;8.07;6.80;;;;;;;;;;5040408;28;20978;-84
2021/10/14 05:28:25;;;;;;;8.20;5.30;;;;;;;;;;5052147;28;20447;-82
2021/10/14 05:30:53;;;;;;;6.97;6.27;;;;;;;;;;5050378;28;20485;-84
2021/10/14 05:33:20;;;;;;;8.50;6.63;;;;;;;;;;5052648;28;20465;-83
2021/10/14 05:35:47;;;;;;;11.43;7.13;;;;;;;;;;5052990;28;20445;-82
2021/10/14 05:38:16;;;;;;;9.87;6.40;;;;;;;;;;5053841;28;20449;-82
2021/10/14 05:40:45;;;;;;;8.03;5.77;;;;;;;;;;5047600;28;20928;-86
2021/10/14 05:43:13;;;;;;;14.20;6.10;;;;;;;;;;5037836;28;20660;-82
2021/10/14 05:45:40;;;;;;;9.27;6.50;;;;;;;;;;5056311;28;20441;-79
2021/10/14 05:48:07;;;;;;;7.33;6.07;;;;;;;;;;5057568;28;20461;-81
2021/10/14 05:50:34;;;;;;;9.53;7.20;;;;;;;;;;5051785;28;20492;-82
2021/10/14 05:53:01;;;;;;;7.93;6.20;;;;;;;;;;5050182;28;21211;-80
2021/10/14 05:55:30;;;;;;;7.77;6.33;;;;;;;;;;5051560;28;20449;-80
2021/10/14 05:57:57;;;;;;;8.83;7.40;;;;;;;;;;5041855;28;20434;-79
2021/10/14 06:00:24;;;;;;;13.83;7.87;;;;;;;;;;5037564;28;20450;-82
2021/10/14 06:02:52;;;;;;;12.00;8.80;;;;;;;;;;5045980;28;20477;-81
2021/10/14 06:05:19;;;;;;;9.77;8.10;;;;;;;;;;5057048;28;21576;-78
2021/10/14 06:07:50;;;;;;;9.87;7.70;;;;;;;;;;5053597;28;20548;-80
2021/10/14 06:10:17;;;;;;;8.83;6.83;;;;;;;;;;5052858;28;20564;-80
2021/10/14 06:12:45;;;;;;;9.90;7.63;;;;;;;;;;5050284;28;20470;-83
2021/10/14 06:15:13;;;;;;;9.40;7.00;;;;;;;;;;5039043;28;20450;-80
2021/10/14 06:17:41;;;;;;;10.40;6.97;;;;;;;;;;5048945;28;20785;-80
2021/10/14 06:20:08;;;;;;;8.47;6.40;;;;;;;;;;5051931;28;21001;-82
2021/10/14 06:22:36;;;;;;;9.03;6.90;;;;;;;;;;5051518;28;20477;-78
2021/10/14 06:25:03;;;;;;;10.10;7.00;;;;;;;;;;5053279;28;20491;-82
2021/10/14 06:27:30;;;;;;;9.60;6.40;;;;;;;;;;5044753;28;20453;-84
2021/10/14 06:29:59;;;;;;;8.80;6.63;;;;;;;;;;5039964;28;20476;-81
2021/10/14 06:32:27;;;;;;;9.37;5.90;;;;;;;;;;5034238;28;20454;-83
2021/10/14 06:34:54;;;;;;;8.87;6.50;;;;;;;;;;5046907;28;20487;-83
2021/10/14 06:37:21;;;;;;;11.47;6.20;;;;;;;;;;5048368;28;20820;-84
2021/10/14 06:39:49;;;;;;;10.80;6.57;;;;;;;;;;5014968;28;20454;-83
2021/10/14 06:42:16;;;;;;;6.00;5.40;;;;;;;;;;5042217;28;20488;-80
2021/10/14 06:44:43;;;;;;;12.27;6.43;;;;;;;;;;5041882;28;20461;-87
2021/10/14 06:47:12;;;;;;;8.30;5.83;;;;;;;;;;5038658;28;20802;-85
2021/10/14 06:49:39;;;;;;;12.43;7.37;;;;;;;;;;5041024;28;20462;-84
2021/10/14 06:52:06;;;;;;;9.07;5.80;;;;;;;;;;5030748;28;20442;-82
2021/10/14 06:54:34;;;;;;;9.40;6.13;;;;;;;;;;5037555;28;20480;-81
2021/10/14 06:57:04;;;;;;;11.17;7.37;;;;;;;;;;5051490;28;20637;-80
2021/10/14 06:59:32;;;;;;;9.27;6.50;;;;;;;;;;5046173;28;20527;-80
2021/10/14 07:01:59;;;;;;;11.03;6.17;;;;;;;;;;5040513;28;20795;-84
2021/10/14 07:04:27;;;;;;;12.47;6.07;;;;;;;;;;5048416;28;20483;-82
2021/10/14 07:06:55;;;;;;;12.70;6.23;;;;;;;;;;5039635;28;20446;-82
2021/10/14 07:09:22;;;;;;;9.63;6.07;;;;;;;;;;5040290;28;20462;-81
2021/10/14 07:11:55;;;;;;;8.90;6.33;;;;;;;;;;5051726;28;20721;-81
2021/10/14 07:14:22;;;;;;;12.63;6.30;;;;;;;;;;5054269;28;20457;-80
2021/10/14 07:16:50;;;;;;;11.17;6.73;;;;;;;;;;5036578;28;20442;-82
2021/10/14 07:19:17;;;;;;;8.10;6.37;;;;;;;;;;5054944;28;20998;-79
2021/10/14 07:24:21;;;;;;;10.17;6.90;;;;;;;;;;5202672;22;21029;-82
2021/10/14 07:26:49;;;;;;;8.47;5.83;;;;;;;;;;5008322;28;20959;-80
2021/10/14 07:29:16;;;;;;;19.80;7.30;;;;;;;;;;4999183;28;20446;-80
2021/10/14 07:31:43;;;;;;;10.80;6.40;;;;;;;;;;5001840;28;20479;-80
2021/10/14 07:34:11;;;;;;;10.30;6.93;;;;;;;;;;4990449;28;20483;-81
2021/10/14 07:36:38;;;;;;;8.93;6.90;;;;;;;;;;4991685;28;20436;-79
2021/10/14 07:39:05;;;;;;;11.13;6.67;;;;;;;;;;4973671;28;20526;-80
2021/10/14 07:41:34;;;;;;;11.73;6.73;;;;;;;;;;4991702;28;20440;-79
2021/10/14 07:44:01;;;;;;;11.47;7.40;;;;;;;;;;4988139;28;20464;-82
2021/10/14 07:46:29;;;;;;;11.17;7.20;;;;;;;;;;4979220;28;20425;-80
2021/10/14 07:48:56;;;;;;;12.17;8.40;;;;;;;;;;4976833;28;20464;-81
2021/10/14 07:51:23;;;;;;;15.87;7.67;;;;;;;;;;4975134;28;20484;-80
2021/10/14 07:53:50;;;;;;;12.67;7.03;;;;;;;;;;4962208;28;20460;-81
2021/10/14 07:56:18;;;;;;;12.07;7.90;;;;;;;;;;4985106;28;20805;-79
2021/10/14 07:58:49;;;;;;;9.50;7.73;;;;;;;;;;4990544;28;20483;-80
2021/10/14 08:01:16;;;;;;;10.20;6.90;;;;;;;;;;4980698;28;20448;-81
2021/10/14 08:03:44;;;;;;;15.07;7.10;;;;;;;;;;4978062;28;20476;-79
2021/10/14 08:06:14;;;;;;;13.97;7.30;;;;;;;;;;4991558;28;20432;-79
2021/10/14 08:08:44;;;;;;;12.73;7.57;;;;;;;;;;4990669;28;20498;-80
2021/10/14 08:11:35;;;;;;;11.07;7.07;;;;;;;;;;4991575;28;20487;-81
2021/10/14 08:17:04;;;;;;;10.37;7.17;;;;;;;;;;4960524;28;20447;-80
2021/10/14 08:19:37;;;;;;;11.33;7.03;;;;;;;;;;4984117;28;20471;-80
2021/10/14 08:22:04;;;;;;;11.90;7.93;;;;;;;;;;4992545;28;20439;-79
2021/10/14 08:24:35;;;;;;;10.27;7.93;;;;;;;;;;4988655;28;21030;-79
2021/10/14 08:27:02;;;;;;;11.73;8.13;;;;;;;;;;4971890;28;20519;-79
2021/10/14 08:29:31;;;;;;;17.53;9.03;;;;;;;;;;4989544;28;20468;-80
2021/10/14 08:32:01;;;;;;;16.63;8.17;;;;;;;;;;4993627;28;20487;-80
2021/10/14 08:34:29;;;;;;;12.53;8.40;;;;;;;;;;4991854;28;20460;-79
2021/10/14 08:36:56;;;;;;;14.97;9.30;;;;;;;;;;4994120;28;20444;-79
2021/10/14 08:39:24;;;;;;;15.83;9.67;;;;;;;;;;4979095;28;20461;-80
2021/10/14 08:41:52;;;;;;;19.63;11.53;;;;;;;;;;4981566;28;20463;-78
2021/10/14 08:44:24;;;;;;;15.70;10.43;;;;;;;;;;4988773;28;20471;-80
2021/10/14 08:46:52;;;;;;;15.50;9.97;;;;;;;;;;4974966;28;20799;-79
2021/10/14 08:49:20;;;;;;;16.47;11.63;;;;;;;;;;4964247;28;20457;-81
2021/10/14 08:51:47;;;;;;;18.67;11.50;;;;;;;;;;4976017;28;20491;-81
2021/10/14 08:54:14;;;;;;;21.23;14.80;;;;;;;;;;4981390;28;20480;-80
2021/10/14 08:56:47;;;;;;;20.17;12.50;;;;;;;;;;4978709;28;20428;-79
2021/10/14 08:59:18;;;;;;;13.07;11.13;;;;;;;;;;4975396;28;21012;-80
2021/10/14 09:01:45;;;;;;;18.73;13.10;;;;;;;;;;4990452;28;20587;-81
2021/10/14 09:04:15;;;;;;;19.87;12.10;;;;;;;;;;4990271;28;20990;-79
2021/10/14 09:06:43;;;;;;;17.93;11.50;;;;;;;;;;4972174;28;20933;-79
2021/10/14 09:09:10;;;;;;;19.23;11.87;;;;;;;;;;4985946;28;21703;-79
2021/10/14 09:11:37;;;;;;;17.80;11.63;;;;;;;;;;4976993;28;20499;-81
2021/10/14 09:14:08;;;;;;;17.67;11.73;;;;;;;;;;4982385;28;20992;-79
2021/10/14 09:16:36;;;;;;;17.50;10.57;;;;;;;;;;4984259;28;20555;-80
2021/10/14 09:19:12;;;;;;;17.80;11.17;;;;;;;;;;4959853;28;20514;-79
2021/10/14 09:21:41;;;;;;;16.70;12.10;;;;;;;;;;4988755;28;20849;-79
2021/10/14 09:24:23;;;;;;;17.33;12.57;;;;;;;;;;4991254;28;20489;-80
2021/10/14 09:26:50;;;;;;;19.37;12.60;;;;;;;;;;4976119;28;20930;-81
2021/10/14 09:29:17;;;;;;;17.17;12.23;;;;;;;;;;4988731;28;20446;-83
2021/10/14 09:31:46;;;;;;;21.67;13.70;;;;;;;;;;4970050;28;20498;-81
2021/10/14 09:34:22;;;;;;;25.00;14.80;;;;;;;;;;4977156;28;20464;-80
2021/10/14 09:36:51;;;;;;;17.20;13.57;;;;;;;;;;4973283;28;20446;-80
2021/10/14 09:39:19;;;;;;;21.43;15.53;;;;;;;;;;4986952;28;21020;-80
2021/10/14 09:41:46;;;;;;;19.60;14.30;;;;;;;;;;4972347;28;20444;-81
2021/10/14 09:44:15;;;;;;;22.23;14.70;;;;;;;;;;4975233;28;20847;-82
2021/10/14 09:46:44;;;;;;;21.83;15.20;;;;;;;;;;4988124;28;20452;-80
2021/10/14 09:49:12;;;;;;;23.10;16.00;;;;;;;;;;4989248;28;20492;-80
2021/10/14 09:51:39;;;;;;;22.07;16.30;;;;;;;;;;4975043;28;20952;-80
2021/10/14 09:54:08;;;;;;;23.63;15.70;;;;;;;;;;4987895;28;20477;-81
2021/10/14 09:56:35;;;;;;;22.13;15.00;;;;;;;;;;4976053;28;20444;-80
2021/10/14 09:59:03;;;;;;;20.80;14.93;;;;;;;;;;4976709;28;20967;-80
2021/10/14 10:01:31;;;;;;;24.80;17.20;;;;;;;;;;4987605;28;20459;-82
2021/10/14 10:03:58;;;;;;;25.37;16.13;;;;;;;;;;4989790;28;20467;-82
2021/10/14 10:06:27;;;;;;;21.30;14.90;;;;;;;;;;4975413;28;20515;-83
2021/10/14 10:08:55;;;;;;;24.53;15.70;;;;;;;;;;4990025;28;20481;-81
2021/10/14 10:11:24;;;;;;;21.20;14.20;;;;;;;;;;4968330;28;21029;-82
2021/10/14 10:13:52;;;;;;;18.60;12.47;;;;;;;;;;4976002;28;20992;-83
2021/10/14 10:16:20;;;;;;;18.90;12.90;;;;;;;;;;4983249;28;20469;-83
2021/10/14 10:18:48;;;;;;;20.53;13.93;;;;;;;;;;4990477;28;20458;-82
2021/10/14 10:21:30;;;;;;;27.30;13.17;;;;;;;;;;4991920;28;20445;-84
2021/10/14 10:23:57;;;;;;;18.93;12.27;;;;;;;;;;4989948;28;20469;-82
2021/10/14 10:26:39;;;;;;;28.97;14.30;;;;;;;;;;4986772;28;21034;-81
2021/10/14 10:29:28;;;;;;;16.70;10.80;;;;;;;;;;4962526;28;20446;-79
2021/10/14 10:32:11;;;;;;;17.07;11.73;;;;;;;;;;4959096;28;20495;-82
2021/10/14 10:34:49;;;;;;;16.20;10.43;;;;;;;;;;4959214;28;20475;-84
2021/10/14 10:37:19;;;;;;;21.50;12.80;;;;;;;;;;4988789;28;20451;-82
2021/10/14 10:39:47;;;;;;;19.30;10.80;;;;;;;;;;4976063;28;20513;-80
2021/10/14 10:42:15;;;;;;;15.33;10.87;;;;;;;;;;4991708;28;20482;-82
2021/10/14 10:44:45;;;;;;;16.17;10.00;;;;;;;;;;4981743;28;20459;-84
2021/10/14 10:47:27;;;;;;;15.43;9.77;;;;;;;;;;4979197;28;20451;-84
2021/10/14 10:49:55;;;;;;;15.60;10.30;;;;;;;;;;4985646;28;20662;-81
2021/10/14 10:52:32;;;;;;;15.40;8.53;;;;;;;;;;4993658;28;20509;-82
2021/10/14 10:54:59;;;;;;;10.73;8.20;;;;;;;;;;4991677;28;20525;-82
2021/10/14 10:57:41;;;;;;;13.70;9.23;;;;;;;;;;4993174;28;20460;-81
2021/10/14 11:00:11;;;;;;;13.60;9.20;;;;;;;;;;4963791;28;20817;-81
2021/10/14 11:02:38;;;;;;;14.83;7.23;;;;;;;;;;4975598;28;20459;-79
2021/10/14 11:05:06;;;;;;;11.10;8.03;;;;;;;;;;4975687;28;20445;-80
2021/10/14 11:07:33;;;;;;;11.33;7.77;;;;;;;;;;4988952;28;20463;-82
2021/10/14 11:10:00;;;;;;;14.93;8.80;;;;;;;;;;4988487;28;20950;-80
2021/10/14 11:12:27;;;;;;;8.13;6.80;;;;;;;;;;4987640;28;20490;-81
2021/10/14 11:14:55;;;;;;;12.67;8.20;;;;;;;;;;4987694;28;20466;-82
2021/10/14 11:17:26;;;;;;;10.40;7.13;;;;;;;;;;4975852;28;20435;-81
2021/10/14 11:20:06;;;;;;;11.00;7.13;;;;;;;;;;4963602;28;20530;-82
2021/10/14 11:22:33;;;;;;;11.10;6.20;;;;;;;;;;4989531;28;20478;-81
2021/10/14 11:25:03;;;;;;;10.50;7.57;;;;;;;;;;4970152;28;20824;-82
2021/10/14 11:27:31;;;;;;;8.27;6.90;;;;;;;;;;4971603;28;20516;-81
2021/10/14 11:30:13;;;;;;;8.87;6.30;;;;;;;;;;4971315;28;20957;-79
2021/10/14 11:32:47;;;;;;;10.20;7.07;;;;;;;;;;4960167;28;20484;-83
2021/10/14 11:35:14;;;;;;;16.90;7.00;;;;;;;;;;4958131;28;20446;-81
2021/10/14 11:37:41;;;;;;;12.50;7.20;;;;;;;;;;4953015;29;20453;-81
2021/10/14 11:40:09;;;;;;;12.33;6.80;;;;;;;;;;4967767;28;20473;-82
2021/10/14 11:42:36;;;;;;;11.20;6.20;;;;;;;;;;4972200;28;20447;-80
2021/10/14 11:45:04;;;;;;;10.90;7.07;;;;;;;;;;4971559;28;20437;-80
2021/10/14 11:47:31;;;;;;;9.00;6.00;;;;;;;;;;4969602;28;20785;-80
2021/10/14 11:50:01;;;;;;;11.33;5.90;;;;;;;;;;4960190;28;20436;-80
2021/10/14 11:52:28;;;;;;;8.03;5.63;;;;;;;;;;4954924;28;20494;-80
2021/10/14 11:55:01;;;;;;;9.60;6.23;;;;;;;;;;4964053;28;20969;-80
2021/10/14 11:57:30;;;;;;;9.33;5.33;;;;;;;;;;4957145;28;20548;-80
2021/10/14 11:59:58;;;;;;;7.00;5.17;;;;;;;;;;4953016;29;20512;-80
2021/10/14 12:02:27;;;;;;;10.23;5.60;;;;;;;;;;4962757;28;20908;-81
2021/10/14 12:04:55;;;;;;;7.87;4.97;;;;;;;;;;4964539;28;20426;-81
2021/10/14 12:07:25;;;;;;;8.30;5.47;;;;;;;;;;4958867;28;20498;-80
2021/10/14 12:09:53;;;;;;;6.57;4.87;;;;;;;;;;4970817;28;20834;-82
2021/10/14 12:12:20;;;;;;;8.47;4.63;;;;;;;;;;4968244;28;20493;-80
2021/10/14 12:14:47;;;;;;;8.57;5.10;;;;;;;;;;4966896;28;20461;-80
2021/10/14 12:17:18;;;;;;;7.93;4.97;;;;;;;;;;4957980;28;20968;-83
2021/10/14 12:19:46;;;;;;;7.80;4.93;;;;;;;;;;4964306;28;20465;-80
2021/10/14 12:22:14;;;;;;;4.97;4.30;;;;;;;;;;4971721;28;20461;-82
2021/10/14 12:24:56;;;;;;;7.00;5.20;;;;;;;;;;4953263;28;20498;-79
2021/10/14 12:27:25;;;;;;;7.10;4.73;;;;;;;;;;4951700;29;20437;-80
2021/10/14 12:29:52;;;;;;;11.03;5.70;;;;;;;;;;4962467;28;20479;-79
2021/10/14 12:32:20;;;;;;;9.50;5.70;;;;;;;;;;4971822;28;20499;-78
2021/10/14 12:34:53;;;;;;;6.07;4.80;;;;;;;;;;4970563;28;20439;-80
2021/10/14 12:37:25;;;;;;;8.23;5.10;;;;;;;;;;4958942;28;20453;-80
2021/10/14 12:40:07;;;;;;;9.90;5.40;;;;;;;;;;4956482;28;20446;-79
2021/10/14 12:45:30;;;;;;;6.60;4.50;;;;;;;;;;4944725;28;20472;-79
2021/10/14 12:48:10;;;;;;;6.60;4.93;;;;;;;;;;4970068;28;20448;-79
2021/10/14 12:50:55;;;;;;;6.37;4.47;;;;;;;;;;4971064;28;20471;-79
2021/10/14 12:53:22;;;;;;;8.37;4.40;;;;;;;;;;4959750;28;20461;-79
2021/10/14 12:55:57;;;;;;;6.63;4.70;;;;;;;;;;4960409;28;20443;-79
2021/10/14 12:58:26;;;;;;;7.60;5.07;;;;;;;;;;4967992;28;20464;-81
2021/10/14 13:01:01;;;;;;;7.33;5.00;;;;;;;;;;4969739;28;20457;-79
2021/10/14 13:03:28;;;;;;;8.53;4.60;;;;;;;;;;4971146;28;20794;-80
2021/10/14 13:05:55;;;;;;;6.90;4.77;;;;;;;;;;4963828;28;20465;-80
2021/10/14 13:08:23;;;;;;;10.00;5.13;;;;;;;;;;4971743;28;20441;-79
2021/10/14 13:10:50;;;;;;;7.40;4.83;;;;;;;;;;4970438;28;20511;-79
2021/10/14 13:13:17;;;;;;;10.30;5.30;;;;;;;;;;4972321;28;21013;-78
2021/10/14 13:15:46;;;;;;;9.13;6.57;;;;;;;;;;4958562;28;20466;-78
2021/10/14 13:18:13;;;;;;;6.07;4.60;;;;;;;;;;4960707;28;20469;-80
2021/10/14 13:20:40;;;;;;;7.17;4.70;;;;;;;;;;4970138;28;20449;-80
2021/10/14 13:23:08;;;;;;;6.10;4.13;;;;;;;;;;4973178;28;20481;-79
2021/10/14 13:25:35;;;;;;;4.87;3.83;;;;;;;;;;4989347;28;20457;-80
2021/10/14 13:28:03;;;;;;;6.23;3.80;;;;;;;;;;4988598;28;20424;-79
2021/10/14 13:30:30;;;;;;;5.87;4.00;;;;;;;;;;4990681;28;20463;-79
2021/10/14 13:32:58;;;;;;;5.23;3.93;;;;;;;;;;4995935;28;20490;-80
2021/10/14 13:35:26;;;;;;;7.83;4.30;;;;;;;;;;5010051;28;20461;-80
2021/10/14 13:37:53;;;;;;;5.40;4.23;;;;;;;;;;4984315;28;20950;-81
2021/10/14 13:40:21;;;;;;;5.60;4.17;;;;;;;;;;4977519;28;20464;-80
2021/10/14 13:42:52;;;;;;;9.53;5.30;;;;;;;;;;4989847;28;20483;-82
2021/10/14 13:45:19;;;;;;;6.30;4.60;;;;;;;;;;4987740;28;20452;-81
2021/10/14 13:47:46;;;;;;;7.13;4.30;;;;;;;;;;4990655;28;20495;-79
2021/10/14 13:50:15;;;;;;;5.00;3.87;;;;;;;;;;4989782;28;20433;-80
2021/10/14 13:52:42;;;;;;;5.03;3.67;;;;;;;;;;4983329;28;20491;-81
2021/10/14 13:55:10;;;;;;;6.57;3.97;;;;;;;;;;4976305;28;20467;-79
2021/10/14 13:57:37;;;;;;;6.60;4.40;;;;;;;;;;4982872;28;20459;-80
2021/10/14 14:00:07;;;;;;;4.30;3.40;;;;;;;;;;4987468;28;20835;-79
2021/10/14 14:02:37;;;;;;;5.37;4.13;;;;;;;;;;4989523;28;20527;-79
2021/10/14 14:05:04;;;;;;;5.30;3.90;;;;;;;;;;4988431;28;20420;-80
2021/10/14 14:07:33;;;;;;;3.70;3.40;;;;;;;;;;4978836;28;20449;-79
2021/10/14 14:10:00;;;;;;;5.40;3.90;;;;;;;;;;4976797;28;21816;-79
2021/10/14 14:12:27;;;;;;;4.33;3.63;;;;;;;;;;4980731;28;20458;-79
2021/10/14 14:14:54;;;;;;;4.20;3.17;;;;;;;;;;4978750;28;20755;-79
2021/10/14 14:17:21;;;;;;;6.50;3.73;;;;;;;;;;4989679;28;20439;-79
2021/10/14 14:19:49;;;;;;;6.07;4.00;;;;;;;;;;4987611;28;20749;-79
2021/10/14 14:22:16;;;;;;;6.13;4.30;;;;;;;;;;4987528;28;20446;-80
2021/10/14 14:24:44;;;;;;;4.03;3.30;;;;;;;;;;4983241;28;20484;-79
2021/10/14 14:27:11;;;;;;;4.97;3.60;;;;;;;;;;4974502;28;20629;-80
2021/10/14 14:29:39;;;;;;;7.87;3.70;;;;;;;;;;4979356;28;20443;-79
2021/10/14 14:32:06;;;;;;;8.50;4.37;;;;;;;;;;4987952;28;20445;-80
2021/10/14 14:34:34;;;;;;;7.77;4.00;;;;;;;;;;4985525;28;20447;-80
2021/10/14 14:37:01;;;;;;;5.63;3.73;;;;;;;;;;4989788;28;20414;-80
2021/10/14 14:39:28;;;;;;;4.20;3.50;;;;;;;;;;4977692;28;20453;-79
2021/10/14 14:41:57;;;;;;;7.43;4.20;;;;;;;;;;4975564;28;20956;-80
2021/10/14 14:44:24;;;;;;;7.37;3.87;;;;;;;;;;4979473;28;20481;-80
2021/10/14 14:46:55;;;;;;;5.37;3.80;;;;;;;;;;4991229;28;20419;-80
2021/10/14 14:49:22;;;;;;;5.80;4.00;;;;;;;;;;4987605;28;20543;-80
2021/10/14 14:51:49;;;;;;;8.03;4.20;;;;;;;;;;4995679;28;20502;-80
2021/10/14 14:54:17;;;;;;;7.10;3.83;;;;;;;;;;4970779;28;20535;-80